La Harpe, Kansas
Current Conditions -  °F | °C
As of 7:16 PM on Thursday 18 Dec 2014 (Local Time) from KCNU Reporting Station
Overcast Overcast  
Wind Chill: 29°   Ceiling: 1000
Heat Index: 34°   Visibility: 8mi
Dew Point: 32°   Wind: 6mph
Humidity: 92%   Direction: 10°N
Pressure: 30.22"   Gusts: NA
Location:  37.92°N, 95.3°W
Report Text: KCNU 190116Z AUTO 01005KT 8SM BKN010 OVC029 01/00 A3022 RMK AO2 T00110000
Loading
Personal Weather Stations






























Interactive Weather Map New forecast layout! Learn more

10-Day Weather Forecast

Advertisements
Track Severe Weather on mobile